Latest Weather Observations for Mount Crawford

IDS60901

Issued at 1:15 pm CDT Sunday 26 October 2014 (issued every 10 minutes, with the page automatically refreshed every 10 minutes)

About weather observations | Map of Adelaide area stations | Latest observations for Adelaide area | Other Formats
Station Details ID: 023878 Name: MT CRAWFORD AWS Lat: -34.73 Lon: 138.93 Height: 525.0 m
Data from the previous 72 hours. | See also: Recent months at Mount Crawford
Date/Time
CDT
Tmp

°C
App
Tmp
°C
Dew
Point
°C
Rel
Hum
%
Delta-T

°C
Wind Press
QNH
hPa
Press
MSL
hPa
Rain
since
9 am
mm
Dir
 
Spd
km/h
Gust
km/h
Spd
kts
Gust
kts
26/01:00pm 22.8 19.6 13.0 54 5.8 NW 22 35 12 19 1012.0 1011.4 0.0
26/12:30pm 21.9 17.5 13.0 57 5.2 NNW 28 43 15 23 1012.9 1012.3 0.0
26/12:19pm 22.2 17.7 12.5 54 5.6 NNW 28 43 15 23 1012.9 1012.3 0.0
26/12:00pm 21.8 18.7 12.1 54 5.6 NNW 20 24 11 13 1012.3 1011.7 0.0
26/11:30am 21.0 17.0 11.9 56 5.2 N 24 32 13 17 1012.4 1011.8 0.0
26/11:00am 19.1 16.8 11.9 63 4.1 N 15 20 8 11 1014.0 1013.4 0.0
26/10:30am 19.2 16.8 12.7 66 3.7 WNW 17 24 9 13 1015.1 1014.5 0.0
26/10:00am 19.4 17.8 11.7 61 4.4 N 11 17 6 9 1013.7 1013.1 0.0
26/09:30am 17.9 16.4 11.9 68 3.4 W 11 15 6 8 1013.6 1013.0 0.0
26/09:00am 14.2 8.6 11.5 84 1.5 NE 32 37 17 20 1012.7 1012.1 0.2
26/08:58am 14.2 8.9 11.4 83 1.5 NNE 30 35 16 19 1013.6 1013.0 0.2
26/08:30am 15.0 12.0 10.6 75 2.4 NNW 17 22 9 12 1015.8 1015.2 0.0
26/08:00am 15.1 12.3 9.9 71 2.8 WNW 15 20 8 11 1016.3 1015.7 0.0
26/07:30am 14.6 10.1 10.0 74 2.5 W 24 32 13 17 1016.7 1016.2 0.0
26/07:10am 16.0 11.5 10.1 68 3.2 WNW 24 37 13 20 1015.9 1015.3 0.0
26/07:00am 16.3 14.9 9.5 64 3.6 NNE 7 9 4 5 1013.7 1013.1 0.0
26/06:30am 16.3 14.9 9.5 64 3.6 N 7 9 4 5 1013.6 1013.0 0.0
26/06:00am 15.3 13.7 10.1 71 2.8 N 9 11 5 6 1013.2 1012.5 0.0
26/05:30am 15.1 13.5 10.3 73 2.6 NNE 9 11 5 6 1012.9 1012.3 0.0
26/05:00am 14.1 12.5 10.1 77 2.1 ENE 9 11 5 6 1012.8 1012.2 0.0
26/04:30am 14.4 12.6 10.8 79 2.0 NNE 11 13 6 7 1012.9 1012.3 0.0
26/04:00am 14.7 12.9 10.7 77 2.2 N 11 13 6 7 1013.5 1012.9 0.0
26/03:30am 13.8 12.0 10.8 82 1.6 N 11 13 6 7 1013.1 1012.4 0.0
26/03:00am 14.5 12.7 10.9 79 2.0 NNW 11 15 6 8 1013.4 1012.8 0.0
26/02:30am 14.6 12.5 11.0 79 2.0 WNW 13 15 7 8 1013.8 1013.2 0.0
26/02:00am 15.7 13.9 9.4 66 3.3 WNW 9 13 5 7 1013.8 1013.2 0.0
26/01:30am 16.2 14.3 8.9 62 3.9 WNW 9 11 5 6 1014.2 1013.6 0.0
26/01:00am 15.4 14.1 11.2 76 2.3 NNW 9 11 5 6 1014.6 1014.0 0.0
26/12:30am 15.1 14.4 11.5 79 2.0 W 6 7 3 4 1014.9 1014.3 0.0
26/12:00am 14.9 13.6 11.1 78 2.1 WSW 9 9 5 5 1015.4 1014.8 0.0
 
Date/Time
CDT
Tmp

°C
App
Tmp
°C
Dew
Point
°C
Rel
Hum
%
Delta-T

°C
Wind Press
QNH
hPa
Press
MSL
hPa
Rain
since
9 am
mm
Dir
 
Spd
km/h
Gust
km/h
Spd
kts
Gust
kts
25/11:30pm 14.4 12.6 9.4 72 2.6 W 9 11 5 6 1015.7 1015.1 0.0
25/11:00pm 14.2 12.6 8.8 70 2.8 W 7 9 4 5 1015.9 1015.3 0.0
25/10:30pm 14.4 12.3 8.4 67 3.1 W 9 11 5 6 1016.7 1016.2 0.0
25/10:00pm 15.0 12.4 7.8 62 3.7 WSW 11 15 6 8 1016.6 1016.1 0.0
25/09:30pm 15.3 12.6 7.3 59 4.1 W 11 13 6 7 1016.6 1016.1 0.0
25/09:00pm 15.6 13.1 8.4 62 3.7 WNW 11 15 6 8 1016.7 1016.2 0.0
25/08:30pm 15.7 13.1 9.4 66 3.3 WNW 13 15 7 8 1016.5 1015.9 0.0
25/08:00pm 16.4 14.3 9.6 64 3.6 W 11 15 6 8 1016.3 1015.7 0.0
25/07:30pm 17.6 14.3 9.5 59 4.4 W 17 22 9 12 1016.3 1015.7 0.0
25/07:00pm 19.9 17.0 9.5 51 5.7 W 15 20 8 11 1015.9 1015.3 0.0
25/06:30pm 20.8 17.6 8.4 45 6.7 W 15 20 8 11 1015.8 1015.2 0.0
25/06:00pm 21.6 18.4 8.5 43 7.1 W 15 20 8 11 1015.7 1015.1 0.0
25/05:30pm 21.8 18.5 8.0 41 7.4 W 15 20 8 11 1015.6 1015.0 0.0
25/05:00pm 22.2 18.3 7.2 38 7.9 W 17 24 9 13 1015.8 1015.2 0.0
25/04:30pm 22.3 18.3 8.1 40 7.6 W 19 28 10 15 1015.8 1015.2 0.0
25/04:00pm 22.1 17.2 7.1 38 7.9 W 22 32 12 17 1015.7 1015.1 0.0
25/03:30pm 22.4 17.0 6.2 35 8.4 WSW 24 37 13 20 1015.9 1015.3 0.0
25/03:00pm 22.5 17.7 7.5 38 8.0 W 22 32 12 17 1015.9 1015.3 0.0
25/02:30pm 22.9 17.4 7.4 37 8.3 W 26 37 14 20 1016.1 1015.5 0.0
25/02:00pm 23.0 17.8 7.1 36 8.4 W 24 33 13 18 1015.9 1015.3 0.0
25/01:30pm 22.9 18.4 8.6 40 7.8 W 22 32 12 17 1016.0 1015.4 0.0
25/01:00pm 22.5 18.3 9.6 44 7.1 W 22 35 12 19 1016.2 1015.6 0.0
25/12:30pm 22.8 18.6 9.9 44 7.2 WNW 22 33 12 18 1016.4 1015.8 0.0
25/12:00pm 22.2 19.0 10.0 46 6.8 W 17 24 9 13 1016.6 1016.1 0.0
25/11:30am 20.9 18.4 11.0 53 5.6 W 15 24 8 13 1016.9 1016.4 0.0
25/11:00am 20.7 19.1 12.7 60 4.6 W 13 20 7 11 1017.4 1016.8 0.0
25/10:30am 19.5 17.4 11.0 58 4.7 NNW 13 22 7 12 1017.4 1016.8 0.0
25/10:00am 18.5 16.6 10.6 60 4.4 WNW 11 17 6 9 1017.7 1017.1 0.0
25/09:30am 17.9 16.0 10.5 62 4.1 WNW 11 15 6 8 1017.8 1017.2 0.0
25/09:00am 16.4 14.8 10.3 67 3.3 W 9 11 5 6 1017.7 1017.1 0.0
25/08:30am 16.4 15.5 10.7 69 3.1 ENE 6 9 3 5 1017.5 1016.9 0.0
25/08:00am 14.3 12.8 10.5 78 2.0 E 9 13 5 7 1017.2 1016.6 0.0
25/07:30am 13.5 11.3 9.4 76 2.1 ESE 11 13 6 7 1017.1 1016.5 0.0
25/07:00am 13.5 10.7 8.4 71 2.6 ESE 13 15 7 8 1016.7 1016.2 0.0
25/06:30am 14.1 10.9 6.7 61 3.7 ESE 13 15 7 8 1016.2 1015.6 0.0
25/06:00am 15.2 11.8 5.7 53 4.7 SE 13 15 7 8 1016.0 1015.4 0.0
25/05:30am 15.7 12.1 5.0 49 5.2 SE 13 17 7 9 1015.4 1014.8 0.0
25/05:00am 16.1 12.0 4.2 45 5.7 SE 15 19 8 10 1014.8 1014.2 0.0
25/04:30am 16.3 12.8 5.3 48 5.4 SSE 13 17 7 9 1014.9 1014.3 0.0
25/04:00am 15.5 11.2 5.4 51 4.9 SSE 17 20 9 11 1015.2 1014.6 0.0
25/03:30am 14.9 10.3 6.7 58 4.1 SE 20 26 11 14 1015.1 1014.5 0.0
25/03:00am 12.5 9.4 12.3 99 0.1 SE 20 28 11 15 1015.6 1015.0 0.0
25/02:30am 11.8 8.6 11.8 100 0.0 ESE 20 26 11 14 1015.6 1015.0 0.0
25/02:00am 11.9 8.7 11.9 100 0.0 ESE 20 26 11 14 1015.6 1015.0 0.0
25/01:30am 12.2 9.1 12.2 100 0.0 ESE 20 26 11 14 1015.7 1015.1 0.0
25/01:00am 12.2 8.7 12.2 100 0.0 ESE 22 28 12 15 1015.9 1015.3 0.0
25/12:30am 12.4 9.4 12.4 100 0.0 ESE 20 24 11 13 1015.8 1015.2 0.0
25/12:00am 13.0 10.2 12.7 98 0.2 ESE 19 22 10 12 1016.0 1015.4 0.0
 
Date/Time
CDT
Tmp

°C
App
Tmp
°C
Dew
Point
°C
Rel
Hum
%
Delta-T

°C
Wind Press
QNH
hPa
Press
MSL
hPa
Rain
since
9 am
mm
Dir
 
Spd
km/h
Gust
km/h
Spd
kts
Gust
kts
24/11:30pm 13.8 11.6 12.0 89 1.0 ESE 15 17 8 9 1016.2 1015.6 0.0
24/11:00pm 15.0 13.0 11.4 79 2.0 ESE 13 17 7 9 1015.9 1015.3 0.0
24/10:30pm 15.7 12.0 11.5 76 2.3 SSE 22 26 12 14 1016.0 1015.4 0.0
24/10:00pm 16.4 13.4 11.8 74 2.6 SE 19 24 10 13 1015.9 1015.3 0.0
24/09:30pm 17.5 14.6 11.1 66 3.5 SE 17 20 9 11 1015.8 1015.2 0.0
24/09:00pm 19.3 16.3 9.2 52 5.5 SSE 15 19 8 10 1015.6 1015.0 0.0
24/08:30pm 20.4 16.4 9.0 48 6.2 SSE 20 24 11 13 1015.2 1014.6 0.0
24/08:00pm 20.7 16.8 9.3 48 6.2 SSE 20 24 11 13 1014.9 1014.3 0.0
24/07:30pm 23.4 19.6 7.5 36 8.5 SSE 17 20 9 11 1014.8 1014.2 0.0
24/07:00pm 26.1 22.1 5.1 26 11.0 SW 15 20 8 11 1014.7 1014.1 0.0
24/06:30pm 27.8 23.8 4.8 23 12.1 SW 15 20 8 11 1014.3 1013.7 0.0
24/06:00pm 28.8 24.1 5.0 22 12.6 WSW 19 22 10 12 1014.0 1013.4 0.0
24/05:30pm 29.4 24.9 4.1 20 13.2 W 17 24 9 13 1013.8 1013.2 0.0
24/05:00pm 29.3 24.3 4.7 21 13.0 WNW 20 28 11 15 1013.8 1013.2 0.0
24/04:30pm 28.6 23.1 2.0 18 13.4 WNW 20 26 11 14 1013.9 1013.3 0.0
24/04:00pm 29.8 24.7 2.9 18 13.8 WNW 19 24 10 13 1014.3 1013.7 0.0
24/03:30pm 28.9 23.3 1.4 17 13.7 W 20 30 11 16 1014.6 1014.0 0.0
24/03:00pm 28.9 23.9 1.4 17 13.7 NW 17 22 9 12 1014.8 1014.2 0.0
24/02:30pm 28.1 22.2 1.6 18 13.2 W 22 33 12 18 1015.2 1014.6 0.0
24/02:00pm 27.7 22.2 2.0 19 12.8 W 20 28 11 15 1015.5 1014.9 0.0
24/01:30pm 27.3 22.5 5.6 25 11.5 W 20 32 11 17 1015.6 1015.0 0.0
24/01:00pm 26.8 22.0 5.7 26 11.2 W 20 28 11 15 1015.6 1015.0 0.0
24/12:30pm 26.3 21.7 5.8 27 10.8 W 19 30 10 16 1015.7 1015.1 0.0
24/12:00pm 25.1 19.4 4.8 27 10.5 WNW 24 35 13 19 1016.3 1015.7 0.0
24/11:30am 24.7 20.1 6.4 31 9.7 WNW 20 30 11 16 1016.4 1015.8 0.0
24/11:00am 23.9 19.0 7.1 34 9.0 W 22 32 12 17 1016.3 1015.7 0.0
24/10:30am 23.1 19.0 8.0 38 8.1 WNW 19 24 10 13 1016.4 1015.8 0.0
24/10:00am 22.1 18.0 6.3 36 8.2 WNW 17 22 9 12 1016.2 1015.6 0.0
24/09:30am 21.3 17.8 7.2 40 7.4 WNW 15 20 8 11 1016.0 1015.4 0.0
24/09:00am 20.3 16.6 8.0 45 6.5 W 17 20 9 11 1016.1 1015.5 0.0
24/08:30am 19.0 14.7 7.1 46 6.2 WNW 19 22 10 12 1015.7 1015.1 0.0
24/08:00am 18.2 13.8 6.7 47 5.9 WNW 19 24 10 13 1015.4 1014.8 0.0
24/07:30am 17.8 13.2 6.7 48 5.7 NW 20 26 11 14 1015.1 1014.5 0.0
24/07:00am 17.0 12.6 7.6 54 4.9 NW 20 28 11 15 1014.5 1013.9 0.0
24/06:30am 16.2 12.4 8.9 62 3.9 NW 19 26 10 14 1014.2 1013.6 0.0
24/06:00am 16.6 12.5 7.8 56 4.6 NNW 19 24 10 13 1013.5 1012.9 0.0
24/05:30am 16.0 12.8 8.5 61 3.9 NNW 15 20 8 11 1013.4 1012.8 0.0
24/05:00am 16.3 12.6 8.0 58 4.3 NW 17 22 9 12 1013.5 1012.9 0.0
24/04:30am 16.2 12.1 6.1 51 5.0 WNW 17 19 9 10 1013.3 1012.6 0.0
24/04:00am 15.4 11.8 6.9 57 4.3 WNW 15 20 8 11 1013.3 1012.6 0.0
24/03:30am 16.2 12.8 7.7 57 4.4 WNW 15 20 8 11 1013.4 1012.8 0.0
24/03:00am 16.1 12.7 7.8 58 4.3 WNW 15 19 8 10 1013.6 1013.0 0.0
24/02:30am 16.3 12.6 7.8 57 4.4 NW 17 22 9 12 1014.2 1013.6 0.0
24/02:00am 15.9 12.6 7.9 59 4.1 WNW 15 19 8 10 1014.5 1013.9 0.0
24/01:30am 15.5 12.7 8.5 63 3.6 WNW 13 15 7 8 1014.9 1014.3 0.0
24/01:00am 14.0 12.4 12.9 93 0.6 NNW 13 17 7 9 1015.4 1014.8 0.0
24/12:30am 13.0 11.0 12.8 99 0.1 NW 15 19 8 10 1015.9 1015.3 0.0
24/12:00am 14.8 12.7 11.2 79 2.0 NW 13 17 7 9 1015.9 1015.3 0.0
 
Date/Time
CDT
Tmp

°C
App
Tmp
°C
Dew
Point
°C
Rel
Hum
%
Delta-T

°C
Wind Press
QNH
hPa
Press
MSL
hPa
Rain
since
9 am
mm
Dir
 
Spd
km/h
Gust
km/h
Spd
kts
Gust
kts
23/11:30pm 15.7 13.6 11.1 74 2.5 NW 13 17 7 9 1016.0 1015.4 0.0
23/11:00pm 16.4 14.4 10.0 66 3.5 NW 11 15 6 8 1016.1 1015.5 0.0
23/10:30pm 16.5 14.6 10.6 68 3.2 WNW 11 15 6 8 1016.3 1015.7 0.0
23/10:00pm 17.4 14.9 8.3 55 4.8 WNW 11 15 6 8 1016.4 1015.8 0.0
23/09:30pm 17.7 15.5 8.0 53 5.1 NW 9 11 5 6 1016.3 1015.7 0.0
23/09:00pm 16.9 16.1 11.8 72 2.9 NNW 7 9 4 5 1016.2 1015.6 0.0
23/08:30pm 17.0 15.7 11.1 68 3.3 W 9 11 5 6 1016.0 1015.4 0.0
23/08:00pm 17.5 15.4 11.3 67 3.5 W 13 17 7 9 1015.9 1015.3 0.0
23/07:30pm 18.4 16.4 11.5 64 3.9 W 13 17 7 9 1015.6 1015.0 0.0
23/07:00pm 19.5 17.7 11.0 58 4.8 W 11 13 6 7 1015.5 1014.9 0.0
23/06:30pm 20.7 18.1 10.8 53 5.5 W 15 19 8 10 1015.4 1014.8 0.0
23/06:00pm 22.2 19.5 11.6 51 6.1 W 17 22 9 12 1015.1 1014.5 0.0
23/05:30pm 23.2 19.9 10.9 46 7.0 W 19 24 10 13 1014.9 1014.3 0.0
23/05:00pm 23.9 20.9 10.6 43 7.5 W 17 24 9 13 1014.8 1014.2 0.0
23/04:30pm 25.2 22.2 10.6 40 8.3 W 17 24 9 13 1014.7 1014.1 0.0
23/04:00pm 25.0 22.7 11.6 43 7.8 WNW 15 24 8 13 1014.6 1014.0 0.0
23/03:30pm 25.4 22.9 9.7 37 8.8 NW 13 20 7 11 1014.8 1014.2 0.0
23/03:00pm 25.5 22.6 9.7 37 8.9 W 15 20 8 11 1015.1 1014.5 0.0
23/02:30pm 25.1 23.1 10.2 39 8.4 W 11 19 6 10 1015.4 1014.8 0.0
23/02:00pm 24.5 23.0 10.4 41 8.0 WSW 9 15 5 8 1015.7 1015.1 0.0
23/01:30pm 23.6 20.4 6.8 34 8.9 WNW 13 19 7 10 1016.1 1015.5 0.0

Latest Capital City Observations: Canberra | Sydney | Melbourne | Brisbane | Adelaide | Perth | Hobart | Darwin

Other Formats:

Comma delimited format used in spreadsheet applications
http://www.bom.gov.au/fwo/IDS60901/IDS60901.94678.axf

JavaScript Object Notation format (JSON) in row-major order
http://www.bom.gov.au/fwo/IDS60901/IDS60901.94678.json